createdAt,value
2022-08-27T00:00:15.272Z,10.77
2022-08-27T00:02:42.840Z,11.60
2022-08-27T00:05:10.865Z,12.27
2022-08-27T00:07:37.704Z,11.85
2022-08-27T00:10:05.663Z,12.57
2022-08-27T00:12:32.841Z,12.60
2022-08-27T00:15:00.466Z,12.60
2022-08-27T00:17:27.502Z,12.38
2022-08-27T00:19:54.326Z,11.98
2022-08-27T00:22:21.166Z,12.48
2022-08-27T00:24:49.159Z,12.68
2022-08-27T00:27:16.305Z,11.98
2022-08-27T00:29:43.115Z,11.77
2022-08-27T00:32:10.086Z,11.77
2022-08-27T00:34:36.916Z,11.50
2022-08-27T00:37:03.894Z,13.27
2022-08-27T00:39:30.732Z,13.75
2022-08-27T00:41:57.550Z,11.05
2022-08-27T00:44:24.350Z,11.93
2022-08-27T00:46:53.808Z,12.80
2022-08-27T00:49:21.837Z,11.30
2022-08-27T00:51:54.106Z,12.48
2022-08-27T00:54:20.940Z,11.93
2022-08-27T00:56:51.904Z,12.43
2022-08-27T00:59:19.429Z,12.35
2022-08-27T01:02:05.591Z,12.23
2022-08-27T01:04:34.534Z,11.70
2022-08-27T01:07:01.511Z,12.57
2022-08-27T01:09:28.379Z,12.52
2022-08-27T01:11:55.724Z,13.52
2022-08-27T01:14:22.562Z,11.50
2022-08-27T01:16:55.331Z,13.85
2022-08-27T01:19:28.802Z,11.95
2022-08-27T01:24:48.840Z,14.25
2022-08-27T01:27:18.058Z,13.68
2022-08-27T01:29:46.110Z,13.52
2022-08-27T01:32:20.115Z,12.90
2022-08-27T01:34:47.554Z,13.35
2022-08-27T01:37:15.027Z,13.35
2022-08-27T01:39:42.724Z,13.77
2022-08-27T01:42:18.406Z,13.95
2022-08-27T01:44:53.308Z,13.20
2022-08-27T01:47:21.309Z,14.00
2022-08-27T01:49:48.188Z,13.88
2022-08-27T01:52:15.946Z,13.57
2022-08-27T01:54:42.849Z,14.32
2022-08-27T01:57:09.967Z,14.65
2022-08-27T01:59:39.786Z,14.18
2022-08-27T02:02:07.679Z,15.18
2022-08-27T02:04:34.687Z,14.70
2022-08-27T02:07:01.633Z,14.38
2022-08-27T02:09:28.476Z,14.18
2022-08-27T02:11:55.337Z,13.95
2022-08-27T02:14:22.824Z,14.90
2022-08-27T02:16:52.380Z,14.43
2022-08-27T02:19:19.790Z,14.18
2022-08-27T02:21:47.382Z,13.07
2022-08-27T02:24:14.211Z,14.68
2022-08-27T02:26:41.607Z,12.82
2022-08-27T02:29:08.479Z,12.48
2022-08-27T02:31:35.413Z,13.20
2022-08-27T02:34:02.347Z,13.30
2022-08-27T02:36:29.174Z,12.80
2022-08-27T02:38:56.286Z,11.85
2022-08-27T02:41:23.354Z,12.05
2022-08-27T02:43:50.282Z,12.73
2022-08-27T02:46:17.272Z,12.25
2022-08-27T02:48:44.736Z,12.38
2022-08-27T02:51:11.571Z,11.45
2022-08-27T02:53:38.386Z,11.13
2022-08-27T02:56:06.248Z,11.45
2022-08-27T02:58:33.737Z,11.57
2022-08-27T03:01:01.843Z,11.25
2022-08-27T03:03:31.804Z,10.88
2022-08-27T03:05:59.274Z,10.68
2022-08-27T03:08:26.907Z,11.35
2022-08-27T03:10:55.994Z,11.35
2022-08-27T03:13:23.391Z,11.48
2022-08-27T03:15:50.250Z,12.32
2022-08-27T03:18:18.377Z,12.00
2022-08-27T03:20:47.498Z,12.18
2022-08-27T03:23:17.557Z,12.93
2022-08-27T03:25:51.215Z,11.75
2022-08-27T03:28:23.844Z,11.48
2022-08-27T03:30:52.760Z,12.00
2022-08-27T03:33:20.363Z,11.63
2022-08-27T03:35:51.708Z,11.70
2022-08-27T03:38:19.036Z,11.82
2022-08-27T03:40:45.837Z,12.77
2022-08-27T03:43:13.474Z,12.63
2022-08-27T03:46:01.046Z,13.18
2022-08-27T03:48:30.324Z,12.57
2022-08-27T03:50:57.344Z,12.75
2022-08-27T03:53:24.222Z,12.65
2022-08-27T03:55:51.064Z,11.82
2022-08-27T03:58:18.068Z,12.63
2022-08-27T04:00:45.031Z,14.10
2022-08-27T04:03:15.293Z,13.57
2022-08-27T04:05:45.572Z,13.48
2022-08-27T04:08:12.977Z,14.20
2022-08-27T04:10:42.329Z,14.73
2022-08-27T04:13:09.216Z,15.15
2022-08-27T04:15:38.187Z,14.52
2022-08-27T04:18:07.706Z,16.27
2022-08-27T04:20:35.986Z,15.27
2022-08-27T04:23:03.783Z,16.42
2022-08-27T04:25:30.778Z,14.50
2022-08-27T04:27:57.852Z,14.23
2022-08-27T04:30:24.839Z,12.45
2022-08-27T04:32:51.721Z,12.43
2022-08-27T04:35:18.671Z,13.52
2022-08-27T04:37:45.604Z,12.82
2022-08-27T04:40:12.528Z,11.60
2022-08-27T04:42:39.506Z,12.20
2022-08-27T04:45:06.745Z,11.40
2022-08-27T04:47:33.665Z,12.00
2022-08-27T04:50:00.562Z,12.00
2022-08-27T04:52:30.059Z,12.00
2022-08-27T04:59:17.274Z,12.40
2022-08-27T05:01:44.259Z,12.68
2022-08-27T05:04:12.501Z,13.20
2022-08-27T05:06:39.308Z,13.43
2022-08-27T05:09:06.172Z,15.05
2022-08-27T05:11:34.586Z,14.57
2022-08-27T05:14:05.617Z,13.90
2022-08-27T05:16:32.637Z,15.23
2022-08-27T05:18:59.920Z,15.07
2022-08-27T05:21:28.678Z,15.32
2022-08-27T05:23:56.525Z,16.88
2022-08-27T05:26:23.366Z,16.52
2022-08-27T05:28:50.225Z,16.35
2022-08-27T05:31:17.324Z,12.13
2022-08-27T05:33:44.423Z,11.23
2022-08-27T05:36:22.782Z,11.23
2022-08-27T05:38:50.441Z,13.55
2022-08-27T05:41:19.267Z,15.90
2022-08-27T05:43:49.865Z,16.23
2022-08-27T05:46:18.752Z,16.02
2022-08-27T05:48:45.806Z,15.05
2022-08-27T05:51:25.343Z,13.73
2022-08-27T05:54:04.565Z,12.65
2022-08-27T05:56:35.335Z,12.77
2022-08-27T05:59:20.841Z,12.52
2022-08-27T06:01:49.586Z,12.52
2022-08-27T06:04:17.929Z,13.52
2022-08-27T06:11:11.686Z,15.50
2022-08-27T06:13:38.573Z,15.95
2022-08-27T06:16:10.027Z,15.43
2022-08-27T06:18:38.407Z,15.88
2022-08-27T06:21:05.598Z,16.85
2022-08-27T06:23:32.446Z,14.20
2022-08-27T06:25:59.606Z,13.75
2022-08-27T06:28:29.584Z,14.20
2022-08-27T06:31:25.948Z,15.32
2022-08-27T06:33:53.767Z,16.27
2022-08-27T06:36:22.644Z,14.98
2022-08-27T06:38:49.816Z,15.30
2022-08-27T06:41:23.460Z,15.77
2022-08-27T06:43:50.894Z,14.45
2022-08-27T06:46:18.588Z,15.68
2022-08-27T06:48:46.865Z,16.00
2022-08-27T06:51:14.765Z,15.13
2022-08-27T06:53:41.738Z,16.05
2022-08-27T06:56:09.302Z,14.95
2022-08-27T06:58:36.273Z,15.20
2022-08-27T07:01:06.763Z,14.75
2022-08-27T07:03:33.668Z,15.48
2022-08-27T07:06:07.632Z,14.73
2022-08-27T07:08:34.862Z,15.05
2022-08-27T07:11:01.943Z,16.92
2022-08-27T07:13:29.584Z,16.65
2022-08-27T07:15:57.028Z,17.05
2022-08-27T07:18:27.303Z,17.67
2022-08-27T07:20:54.866Z,16.08
2022-08-27T07:23:21.779Z,17.35
2022-08-27T07:25:48.616Z,16.92
2022-08-27T07:28:15.717Z,17.05
2022-08-27T07:30:42.804Z,15.70
2022-08-27T07:33:09.963Z,16.48
2022-08-27T07:35:36.789Z,16.92
2022-08-27T07:38:03.803Z,16.52
2022-08-27T07:40:30.791Z,15.82
2022-08-27T07:43:16.282Z,15.50
2022-08-27T07:45:48.312Z,13.45
2022-08-27T07:48:16.408Z,13.32
2022-08-27T07:50:43.647Z,13.45
2022-08-27T07:53:10.503Z,13.38
2022-08-27T07:55:38.381Z,13.38
2022-08-27T07:58:05.568Z,13.20
2022-08-27T08:00:40.475Z,12.45
2022-08-27T08:03:07.311Z,12.25
2022-08-27T08:05:34.133Z,12.82
2022-08-27T08:08:01.005Z,12.15
2022-08-27T08:10:29.005Z,13.57
2022-08-27T08:12:57.245Z,12.40
2022-08-27T08:15:24.046Z,11.52
2022-08-27T08:17:51.284Z,11.65
2022-08-27T08:20:27.460Z,11.45
2022-08-27T08:23:06.396Z,12.07
2022-08-27T08:25:38.534Z,11.52
2022-08-27T08:28:05.742Z,11.75
2022-08-27T08:30:33.172Z,10.63
2022-08-27T08:33:02.288Z,11.40
2022-08-27T08:35:34.928Z,11.55
2022-08-27T08:38:07.399Z,10.77
2022-08-27T08:40:43.081Z,10.45
2022-08-27T08:43:36.710Z,9.38
2022-08-27T08:46:25.715Z,9.60
2022-08-27T08:48:54.518Z,9.65
2022-08-27T08:51:40.619Z,10.15
2022-08-27T08:54:18.436Z,9.65
2022-08-27T08:57:00.410Z,8.80
2022-08-27T08:59:33.770Z,8.68
2022-08-27T09:04:27.476Z,8.05
2022-08-27T09:06:55.670Z,8.13
2022-08-27T09:09:44.637Z,8.57
2022-08-27T09:12:25.071Z,8.98
2022-08-27T09:15:12.313Z,8.85
2022-08-27T09:17:40.277Z,8.55
2022-08-27T09:20:08.837Z,8.15
2022-08-27T09:22:43.122Z,7.70
2022-08-27T09:25:21.108Z,8.63
2022-08-27T09:27:48.790Z,8.00
2022-08-27T09:30:29.929Z,8.32
2022-08-27T09:33:04.265Z,8.52
2022-08-27T09:35:45.710Z,7.70
2022-08-27T09:38:23.669Z,8.13
2022-08-27T09:40:51.930Z,8.50
2022-08-27T09:43:23.751Z,7.93
2022-08-27T09:45:56.096Z,7.97
2022-08-27T09:48:28.290Z,7.83
2022-08-27T09:50:59.725Z,7.85
2022-08-27T09:53:58.593Z,8.45
2022-08-27T09:56:39.362Z,7.43
2022-08-27T09:59:27.911Z,7.18
2022-08-27T10:02:06.605Z,7.38
2022-08-27T10:04:50.983Z,7.43
2022-08-27T10:07:26.502Z,7.35
2022-08-27T10:10:13.323Z,7.20
2022-08-27T10:12:58.559Z,7.53
2022-08-27T10:15:28.333Z,9.57
2022-08-27T10:18:12.268Z,10.75
2022-08-27T10:20:51.721Z,10.45
2022-08-27T10:23:32.654Z,11.60
2022-08-27T10:26:11.846Z,11.38
2022-08-27T10:28:47.858Z,12.65
2022-08-27T10:31:40.195Z,11.80
2022-08-27T10:34:23.133Z,12.32
2022-08-27T10:36:56.784Z,11.35
2022-08-27T10:39:41.682Z,12.65
2022-08-27T10:42:19.119Z,11.95
2022-08-27T10:44:51.697Z,11.52
2022-08-27T10:47:24.088Z,12.32
2022-08-27T10:50:36.976Z,12.13
2022-08-27T10:53:17.331Z,11.48
2022-08-27T10:55:51.382Z,11.15
2022-08-27T10:58:41.639Z,11.20
2022-08-27T11:01:43.413Z,12.77
2022-08-27T11:04:28.633Z,11.38
2022-08-27T11:07:25.940Z,10.95
2022-08-27T11:10:34.173Z,10.20
2022-08-27T11:13:05.874Z,10.57
2022-08-27T11:15:37.266Z,10.18
2022-08-27T11:18:08.197Z,10.00
2022-08-27T11:20:57.615Z,10.00
2022-08-27T11:23:28.750Z,11.18
2022-08-27T11:26:01.569Z,10.93
2022-08-27T11:28:47.920Z,10.52
2022-08-27T11:31:44.292Z,9.45
2022-08-27T11:34:15.702Z,8.70
2022-08-27T11:37:03.932Z,8.38
2022-08-27T11:39:58.685Z,9.00
2022-08-27T11:42:58.279Z,8.48
2022-08-27T11:45:34.806Z,8.27
2022-08-27T11:48:03.061Z,7.57
2022-08-27T11:50:31.146Z,9.00
2022-08-27T11:52:59.284Z,10.60
2022-08-27T11:55:30.860Z,10.43
2022-08-27T11:58:10.249Z,10.95
2022-08-27T12:00:39.311Z,10.57
2022-08-27T12:03:30.801Z,10.50
2022-08-27T12:05:59.253Z,10.23
2022-08-27T12:08:30.001Z,8.82
2022-08-27T12:11:18.781Z,10.52
2022-08-27T12:14:04.387Z,9.95
2022-08-27T12:16:58.424Z,10.77
2022-08-27T12:19:51.526Z,12.65
2022-08-27T12:22:56.842Z,10.77
2022-08-27T12:25:23.807Z,11.27
2022-08-27T12:28:26.070Z,11.32
2022-08-27T12:30:53.460Z,11.45
2022-08-27T12:33:23.426Z,10.77
2022-08-27T12:35:51.612Z,10.43
2022-08-27T12:38:37.167Z,10.05
2022-08-27T12:41:08.879Z,9.30
2022-08-27T12:43:38.296Z,8.70
2022-08-27T12:46:15.947Z,8.05
2022-08-27T12:48:44.447Z,8.13
2022-08-27T12:51:14.564Z,9.45
2022-08-27T12:53:43.072Z,9.38
2022-08-27T12:56:19.099Z,9.18
2022-08-27T12:59:05.430Z,9.85
2022-08-27T13:01:46.807Z,9.60
2022-08-27T13:04:31.820Z,9.68
2022-08-27T13:06:58.702Z,9.43
2022-08-27T13:09:30.847Z,10.43
2022-08-27T13:11:59.532Z,9.57
2022-08-27T13:14:27.587Z,9.20
2022-08-27T13:16:59.430Z,9.38
2022-08-27T13:19:49.181Z,9.40
2022-08-27T13:22:24.589Z,10.27
2022-08-27T13:24:53.542Z,10.75
2022-08-27T13:27:25.963Z,10.45
2022-08-27T13:29:52.796Z,11.15
2022-08-27T13:32:19.648Z,10.95
2022-08-27T13:34:46.476Z,10.75
2022-08-27T13:37:33.645Z,10.43
2022-08-27T13:40:00.568Z,11.15
2022-08-27T13:42:27.800Z,10.73
2022-08-27T13:45:01.644Z,10.38
2022-08-27T13:47:28.701Z,10.68
2022-08-27T13:50:07.567Z,11.00
2022-08-27T13:52:35.703Z,11.93
2022-08-27T13:55:10.706Z,11.02
2022-08-27T13:57:45.531Z,12.13
2022-08-27T14:00:15.765Z,12.20
2022-08-27T14:02:42.745Z,10.73
2022-08-27T14:05:25.519Z,11.93
2022-08-27T14:07:58.268Z,11.77
2022-08-27T14:10:44.118Z,12.95
2022-08-27T14:13:21.629Z,12.40
2022-08-27T14:15:56.096Z,12.68
2022-08-27T14:18:55.037Z,11.25
2022-08-27T14:21:17.174Z,12.07
2022-08-27T14:23:44.053Z,11.32
2022-08-27T14:26:10.883Z,12.73
2022-08-27T14:28:38.117Z,11.95
2022-08-27T14:31:05.048Z,12.40
2022-08-27T14:33:31.939Z,12.18
2022-08-27T14:35:59.358Z,11.57
2022-08-27T14:38:31.983Z,10.75
2022-08-27T14:40:58.918Z,10.38
2022-08-27T14:43:25.793Z,9.73
2022-08-27T14:45:52.678Z,9.98
2022-08-27T14:48:28.887Z,7.82
2022-08-27T14:50:56.666Z,8.13
2022-08-27T14:53:24.076Z,8.48
2022-08-27T14:55:52.072Z,7.68
2022-08-27T14:58:19.505Z,7.05
2022-08-27T15:00:46.433Z,7.70
2022-08-27T15:03:13.258Z,8.52
2022-08-27T15:05:40.120Z,8.52
2022-08-27T15:08:08.333Z,9.32
2022-08-27T15:10:39.686Z,9.35
2022-08-27T15:13:06.572Z,8.73
2022-08-27T15:15:33.418Z,9.05
2022-08-27T15:18:18.705Z,10.05
2022-08-27T15:20:45.565Z,8.70
2022-08-27T15:23:12.530Z,10.20
2022-08-27T15:25:39.986Z,9.55
2022-08-27T15:28:06.976Z,9.18
2022-08-27T15:30:33.806Z,9.65
2022-08-27T15:33:00.877Z,9.40
2022-08-27T15:35:27.837Z,9.35
2022-08-27T15:37:58.044Z,9.30
2022-08-27T15:40:25.816Z,10.02
2022-08-27T15:42:56.278Z,9.60
2022-08-27T15:45:25.503Z,10.15
2022-08-27T15:47:52.681Z,9.00
2022-08-27T15:50:19.537Z,9.50
2022-08-27T15:52:46.361Z,9.27
2022-08-27T15:55:24.713Z,9.88
2022-08-27T15:57:51.742Z,10.45
2022-08-27T16:00:18.978Z,9.82
2022-08-27T16:02:46.197Z,10.50
2022-08-27T16:05:13.353Z,9.45
2022-08-27T16:07:40.209Z,9.02
2022-08-27T16:10:07.285Z,10.48
2022-08-27T16:12:34.466Z,9.95
2022-08-27T16:15:01.781Z,9.73
2022-08-27T16:17:28.695Z,12.55
2022-08-27T16:19:55.637Z,12.27
2022-08-27T16:22:22.539Z,12.73
2022-08-27T16:24:49.535Z,12.82
2022-08-27T16:27:16.424Z,11.65
2022-08-27T16:29:43.270Z,12.00
2022-08-27T16:32:14.153Z,11.68
2022-08-27T16:34:40.993Z,11.85
2022-08-27T16:37:07.911Z,11.40
2022-08-27T16:39:39.982Z,11.73
2022-08-27T16:42:10.130Z,12.07
2022-08-27T16:44:37.858Z,10.77
2022-08-27T16:47:06.092Z,11.35
2022-08-27T16:49:51.743Z,11.27
2022-08-27T16:52:20.836Z,11.40
2022-08-27T16:54:47.805Z,10.45
2022-08-27T16:57:14.840Z,10.57
2022-08-27T16:59:41.740Z,10.13
2022-08-27T17:02:32.570Z,10.07
2022-08-27T17:05:12.359Z,10.13
2022-08-27T17:07:48.879Z,9.70
2022-08-27T17:10:19.314Z,9.70
2022-08-27T17:12:47.993Z,9.05
2022-08-27T17:15:18.170Z,8.95
2022-08-27T17:17:45.290Z,9.30
2022-08-27T17:20:12.786Z,9.23
2022-08-27T17:22:39.650Z,8.57
2022-08-27T17:25:07.123Z,8.30
2022-08-27T17:27:34.022Z,8.27
2022-08-27T17:30:00.846Z,8.13
2022-08-27T17:32:27.697Z,8.48
2022-08-27T17:34:54.526Z,8.48
2022-08-27T17:37:21.422Z,10.18
2022-08-27T17:39:48.663Z,9.23
2022-08-27T17:42:15.522Z,9.95
2022-08-27T17:44:42.510Z,9.30
2022-08-27T17:47:10.375Z,10.20
2022-08-27T17:49:37.531Z,11.10
2022-08-27T17:52:07.118Z,10.50
2022-08-27T17:54:35.790Z,10.30
2022-08-27T17:57:04.336Z,10.90
2022-08-27T17:59:31.357Z,11.00
2022-08-27T18:01:58.210Z,10.68
2022-08-27T18:04:25.087Z,11.90
2022-08-27T18:06:51.947Z,11.30
2022-08-27T18:09:18.836Z,12.25
2022-08-27T18:11:46.346Z,11.48
2022-08-27T18:14:13.560Z,10.63
2022-08-27T18:16:45.445Z,11.20
2022-08-27T18:19:12.364Z,11.05
2022-08-27T18:21:46.505Z,11.52
2022-08-27T18:24:14.871Z,12.18
2022-08-27T18:26:41.709Z,12.10
2022-08-27T18:29:08.701Z,12.38
2022-08-27T18:31:35.544Z,12.25
2022-08-27T18:34:02.500Z,12.65
2022-08-27T18:36:29.474Z,11.90
2022-08-27T18:38:56.379Z,11.68
2022-08-27T18:41:23.869Z,11.65
2022-08-27T18:43:50.891Z,13.25
2022-08-27T18:46:18.034Z,11.90
2022-08-27T18:48:44.936Z,11.73
2022-08-27T18:51:13.134Z,11.75
2022-08-27T18:53:40.548Z,11.93
2022-08-27T18:56:08.676Z,12.00
2022-08-27T18:58:38.514Z,11.80
2022-08-27T19:01:07.312Z,11.40
2022-08-27T19:03:44.824Z,12.15
2022-08-27T19:06:11.814Z,12.60
2022-08-27T19:08:39.484Z,11.10
2022-08-27T19:11:06.444Z,11.68
2022-08-27T19:13:33.783Z,11.50
2022-08-27T19:16:05.581Z,11.90
2022-08-27T19:18:34.198Z,12.10
2022-08-27T19:21:01.003Z,11.00
2022-08-27T19:23:27.844Z,11.20
2022-08-27T19:25:54.712Z,10.90
2022-08-27T19:28:27.060Z,10.85
2022-08-27T19:30:53.911Z,10.68
2022-08-27T19:33:22.462Z,10.80
2022-08-27T19:35:49.409Z,11.02
2022-08-27T19:38:16.398Z,10.20
2022-08-27T19:40:43.393Z,10.02
2022-08-27T19:43:10.245Z,10.38
2022-08-27T19:45:40.287Z,10.10
2022-08-27T19:48:08.086Z,9.60
2022-08-27T19:50:35.034Z,10.40
2022-08-27T19:53:01.909Z,9.60
2022-08-27T19:55:28.804Z,9.27
2022-08-27T19:57:55.648Z,9.77
2022-08-27T20:00:22.972Z,9.00
2022-08-27T20:02:50.881Z,9.57
2022-08-27T20:05:19.930Z,8.93
2022-08-27T20:07:48.889Z,9.23
2022-08-27T20:10:16.565Z,9.27
2022-08-27T20:12:43.679Z,8.65
2022-08-27T20:15:11.024Z,10.20
2022-08-27T20:17:37.868Z,8.93
2022-08-27T20:20:06.597Z,9.07
2022-08-27T20:22:33.480Z,8.80
2022-08-27T20:25:00.420Z,9.13
2022-08-27T20:27:27.261Z,9.45
2022-08-27T20:29:54.936Z,9.23
2022-08-27T20:32:24.800Z,9.27
2022-08-27T20:34:54.765Z,8.63
2022-08-27T20:37:21.681Z,9.15
2022-08-27T20:39:48.472Z,9.70
2022-08-27T20:42:15.370Z,9.93
2022-08-27T20:44:42.200Z,9.52
2022-08-27T20:47:09.076Z,8.73
2022-08-27T20:49:35.992Z,9.23
2022-08-27T20:52:05.884Z,9.60
